createdAt,value
2019-02-11T00:01:36.977Z,98828.68
2019-02-11T00:03:38.426Z,98841.45
2019-02-11T00:05:39.807Z,98845.08
2019-02-11T00:07:41.167Z,98853.92
2019-02-11T00:09:43.281Z,98865.10
2019-02-11T00:11:44.668Z,98876.09
2019-02-11T00:13:46.024Z,98870.34
2019-02-11T00:15:47.461Z,98864.41
2019-02-11T00:17:48.851Z,98878.41
2019-02-11T00:19:50.229Z,98885.56
2019-02-11T00:21:51.636Z,98883.78
2019-02-11T00:23:53.080Z,98890.55
2019-02-11T00:25:54.501Z,98887.94
2019-02-11T00:27:55.907Z,98892.30
2019-02-11T00:29:57.382Z,98888.59
2019-02-11T00:31:58.776Z,98883.84
2019-02-11T00:34:00.224Z,98899.10
2019-02-11T00:36:01.609Z,98899.19
2019-02-11T00:38:02.987Z,98913.90
2019-02-11T00:40:06.717Z,98907.00
2019-02-11T00:42:08.086Z,98928.67
2019-02-11T00:44:09.551Z,98940.02
2019-02-11T00:46:10.964Z,98931.54
2019-02-11T00:48:12.354Z,98938.09
2019-02-11T00:50:13.791Z,98939.63
2019-02-11T00:52:15.167Z,98945.54
2019-02-11T00:54:16.554Z,98972.89
2019-02-11T00:56:18.079Z,98961.55
2019-02-11T00:58:19.503Z,98962.63
2019-02-11T01:00:21.039Z,98967.64
2019-02-11T01:02:22.425Z,98977.02
2019-02-11T01:04:23.815Z,98985.02
2019-02-11T01:06:25.535Z,98994.69
2019-02-11T01:08:26.920Z,98997.73
2019-02-11T01:10:28.308Z,99018.91
2019-02-11T01:12:29.733Z,99024.83
2019-02-11T01:14:31.126Z,99018.94
2019-02-11T01:16:32.533Z,99024.73
2019-02-11T01:18:33.949Z,99032.12
2019-02-11T01:20:35.339Z,99040.09
2019-02-11T01:22:36.774Z,99051.36
2019-02-11T01:24:38.151Z,99052.58
2019-02-11T01:26:39.533Z,99062.56
2019-02-11T01:28:41.359Z,99053.29
2019-02-11T01:30:42.735Z,99056.92
2019-02-11T01:32:44.113Z,99058.15
2019-02-11T01:34:45.555Z,99077.18
2019-02-11T01:36:46.941Z,99056.32
2019-02-11T01:38:48.319Z,99077.55
2019-02-11T01:40:49.752Z,99087.66
2019-02-11T01:42:51.148Z,99083.95
2019-02-11T01:44:52.619Z,99077.30
2019-02-11T01:46:54.078Z,99086.16
2019-02-11T01:48:55.472Z,99088.86
2019-02-11T01:50:56.828Z,99088.55
2019-02-11T01:52:58.276Z,99097.45
2019-02-11T01:54:59.657Z,99100.48
2019-02-11T01:57:01.038Z,99104.77
2019-02-11T01:59:02.594Z,99114.67
2019-02-11T02:01:04.021Z,99112.68
2019-02-11T02:03:05.613Z,99120.27
2019-02-11T02:05:08.109Z,99125.51
2019-02-11T02:07:09.563Z,99128.75
2019-02-11T02:09:10.942Z,99130.17
2019-02-11T02:11:12.312Z,99140.02
2019-02-11T02:13:14.012Z,99136.16
2019-02-11T02:15:15.573Z,99145.28
2019-02-11T02:17:17.115Z,99153.03
2019-02-11T02:19:18.589Z,99154.42
2019-02-11T02:21:20.127Z,99156.17
2019-02-11T02:23:21.569Z,99165.89
2019-02-11T02:25:24.799Z,99160.45
2019-02-11T02:27:26.490Z,99175.02
2019-02-11T02:29:28.031Z,99180.88
2019-02-11T02:31:29.420Z,99190.59
2019-02-11T02:33:30.991Z,99193.74
2019-02-11T02:35:32.494Z,99211.33
2019-02-11T02:37:33.920Z,99207.16
2019-02-11T02:39:35.706Z,99214.49
2019-02-11T02:41:37.405Z,99210.77
2019-02-11T02:43:40.160Z,99221.26
2019-02-11T02:45:41.715Z,99228.18
2019-02-11T02:47:43.195Z,99230.81
2019-02-11T02:49:46.160Z,99234.55
2019-02-11T02:51:47.614Z,99239.63
2019-02-11T02:53:49.298Z,99243.12
2019-02-11T02:55:51.074Z,99226.19
2019-02-11T02:57:55.355Z,99259.62
2019-02-11T02:59:57.186Z,99261.41
2019-02-11T03:01:58.720Z,99267.40
2019-02-11T03:04:00.346Z,99272.83
2019-02-11T03:06:01.954Z,99287.51
2019-02-11T03:08:03.574Z,99291.66
2019-02-11T03:10:09.002Z,99295.95
2019-02-11T03:12:10.467Z,99307.39
2019-02-11T03:14:11.945Z,99309.88
2019-02-11T03:16:13.395Z,99306.89
2019-02-11T03:18:14.854Z,99322.75
2019-02-11T03:20:16.248Z,99329.31
2019-02-11T03:22:24.186Z,99333.20
2019-02-11T03:24:28.386Z,99340.50
2019-02-11T03:26:32.705Z,99344.79
2019-02-11T03:28:44.330Z,99354.48
2019-02-11T03:30:54.707Z,99357.00
2019-02-11T03:33:00.347Z,99321.00
2019-02-11T03:35:05.121Z,99369.28
2019-02-11T03:37:07.064Z,99371.78
2019-02-11T03:39:10.243Z,99375.64
2019-02-11T03:41:12.113Z,99389.22
2019-02-11T03:43:17.088Z,99384.14
2019-02-11T03:45:22.366Z,99403.39
2019-02-11T03:47:24.028Z,99403.53
2019-02-11T03:49:25.684Z,99404.11
2019-02-11T03:51:29.108Z,99419.08
2019-02-11T03:53:31.659Z,99423.85
2019-02-11T03:55:33.657Z,99426.30
2019-02-11T03:57:35.159Z,99437.62
2019-02-11T03:59:36.748Z,99438.25
2019-02-11T04:01:38.242Z,99443.17
2019-02-11T04:03:39.860Z,99460.97
2019-02-11T04:05:41.287Z,99455.55
2019-02-11T04:07:42.649Z,99464.12
2019-02-11T04:09:46.412Z,99463.91
2019-02-11T04:11:48.566Z,99478.56
2019-02-11T04:13:50.103Z,99475.66
2019-02-11T04:15:51.488Z,99480.95
2019-02-11T04:17:53.071Z,99492.34
2019-02-11T04:19:56.246Z,99495.75
2019-02-11T04:22:09.509Z,99510.63
2019-02-11T04:24:16.267Z,99475.74
2019-02-11T04:26:32.445Z,99513.80
2019-02-11T04:28:50.587Z,99517.91
2019-02-11T04:30:54.275Z,99522.11
2019-02-11T04:32:58.808Z,99519.92
2019-02-11T04:35:00.676Z,99535.48
2019-02-11T04:37:03.013Z,99547.09
2019-02-11T04:39:04.773Z,99556.65
2019-02-11T04:41:06.610Z,99558.83
2019-02-11T04:43:09.827Z,99566.08
2019-02-11T04:45:12.517Z,99573.73
2019-02-11T04:47:14.011Z,99577.15
2019-02-11T04:49:15.654Z,99587.36
2019-02-11T04:51:20.074Z,99597.20
2019-02-11T04:53:25.263Z,99597.40
2019-02-11T04:55:28.258Z,99609.38
2019-02-11T04:57:31.647Z,99615.47
2019-02-11T04:59:33.426Z,99613.67
2019-02-11T05:03:57.607Z,99619.44
2019-02-11T05:05:59.307Z,99624.98
2019-02-11T05:08:00.753Z,99633.61
2019-02-11T05:10:14.760Z,99641.23
2019-02-11T05:12:16.207Z,99644.31
2019-02-11T05:14:17.608Z,99648.23
2019-02-11T05:16:19.035Z,99650.73
2019-02-11T05:18:20.529Z,99652.72
2019-02-11T05:20:22.015Z,99657.17
2019-02-11T05:22:23.394Z,99666.46
2019-02-11T05:24:24.806Z,99672.59
2019-02-11T05:26:26.384Z,99683.72
2019-02-11T05:28:27.773Z,99684.25
2019-02-11T05:33:33.142Z,99689.45
2019-02-11T05:35:34.541Z,99700.03
2019-02-11T05:37:55.800Z,99656.58
2019-02-11T05:40:17.094Z,99712.84
2019-02-11T05:42:38.378Z,99689.61
2019-02-11T05:44:59.635Z,99720.41
2019-02-11T05:47:20.946Z,99721.23
2019-02-11T05:49:42.217Z,99728.36
2019-02-11T05:52:03.507Z,99732.90
2019-02-11T05:54:24.762Z,99742.23
2019-02-11T05:56:46.018Z,99715.64
2019-02-11T05:59:07.356Z,99756.59
2019-02-11T06:01:21.985Z,99728.80
2019-02-11T06:03:36.928Z,99729.03
2019-02-11T06:05:58.208Z,99765.90
2019-02-11T06:08:19.473Z,99778.92
2019-02-11T06:10:40.776Z,99736.62
2019-02-11T06:13:02.101Z,99787.70
2019-02-11T06:15:23.469Z,99758.55
2019-02-11T06:17:44.733Z,99789.93
2019-02-11T06:20:29.050Z,99803.08
2019-02-11T06:22:50.504Z,99766.38
2019-02-11T06:24:51.896Z,99812.77
2019-02-11T06:27:13.167Z,99784.67
2019-02-11T06:29:34.446Z,99826.13
2019-02-11T06:31:55.740Z,99797.54
2019-02-11T06:34:16.987Z,99827.11
2019-02-11T06:36:38.270Z,99799.77
2019-02-11T06:38:59.536Z,99802.36
2019-02-11T06:41:20.927Z,99855.07
2019-02-11T06:43:42.164Z,99858.08
2019-02-11T06:46:03.417Z,99861.84
2019-02-11T06:48:24.709Z,99831.81
2019-02-11T06:50:26.102Z,99874.38
2019-02-11T06:52:47.364Z,99834.67
2019-02-11T06:55:02.425Z,99887.40
2019-02-11T06:57:23.689Z,99857.38
2019-02-11T06:59:44.944Z,99892.50
2019-02-11T07:02:06.237Z,99902.01
2019-02-11T07:04:27.702Z,99865.37
2019-02-11T07:06:48.989Z,99913.62
2019-02-11T07:09:10.268Z,99922.33
2019-02-11T07:11:31.534Z,99922.98
2019-02-11T07:13:52.801Z,99898.84
2019-02-11T07:16:07.580Z,99943.20
2019-02-11T07:18:28.837Z,99948.97
2019-02-11T07:20:50.100Z,99947.14
2019-02-11T07:23:11.604Z,99950.46
2019-02-11T07:25:32.871Z,99959.77
2019-02-11T07:27:54.131Z,99968.09
2019-02-11T07:30:15.438Z,99977.73
2019-02-11T07:32:36.695Z,99979.58
2019-02-11T07:34:57.933Z,99943.09
2019-02-11T07:37:19.214Z,99985.02
2019-02-11T07:39:40.738Z,99988.41
2019-02-11T07:42:21.878Z,99958.03
2019-02-11T07:47:26.436Z,99963.16
2019-02-11T07:49:48.721Z,99964.19
2019-02-11T07:52:10.005Z,100012.32
2019-02-11T07:54:31.371Z,99985.44
2019-02-11T07:56:52.669Z,100025.89
2019-02-11T07:59:13.951Z,100025.16
2019-02-11T08:01:35.186Z,100031.63
2019-02-11T08:03:58.394Z,100001.30
2019-02-11T08:06:21.554Z,100043.64
2019-02-11T08:08:42.796Z,100049.75
2019-02-11T08:11:04.084Z,100020.16
2019-02-11T08:13:26.700Z,100063.18
2019-02-11T08:16:08.425Z,100071.44
2019-02-11T08:18:29.727Z,100069.20
2019-02-11T08:20:51.039Z,100075.30
2019-02-11T08:23:14.193Z,100048.55
2019-02-11T08:25:35.459Z,100103.59
2019-02-11T08:27:50.661Z,100097.95
2019-02-11T08:30:12.129Z,100101.70
2019-02-11T08:32:33.393Z,100069.24
2019-02-11T08:34:54.677Z,100102.17
2019-02-11T08:37:15.922Z,100111.87
2019-02-11T08:39:37.183Z,100121.80
2019-02-11T08:41:58.471Z,100121.66
2019-02-11T08:44:19.816Z,100103.55
2019-02-11T08:46:41.079Z,100141.66
2019-02-11T08:49:02.636Z,100106.84
2019-02-11T08:51:23.977Z,100108.69
2019-02-11T08:53:45.217Z,100149.79
2019-02-11T08:56:06.636Z,100156.00
2019-02-11T08:58:27.885Z,100156.59
2019-02-11T09:00:49.126Z,100126.30
2019-02-11T09:03:10.688Z,100161.12
2019-02-11T09:05:31.982Z,100129.84
2019-02-11T09:07:53.235Z,100134.66
2019-02-11T09:10:14.616Z,100146.09
2019-02-11T09:12:35.959Z,100156.53
2019-02-11T09:14:57.249Z,100192.97
2019-02-11T09:17:20.439Z,100204.95
2019-02-11T09:19:21.829Z,100219.53
2019-02-11T09:21:43.116Z,100195.65
2019-02-11T09:24:04.378Z,100219.26
2019-02-11T09:26:25.667Z,100230.35
2019-02-11T09:28:40.730Z,100235.00
2019-02-11T09:31:01.997Z,100218.93
2019-02-11T09:33:23.265Z,100214.15
2019-02-11T09:35:44.735Z,100254.17
2019-02-11T09:38:05.998Z,100245.72
2019-02-11T09:40:27.282Z,100210.33
2019-02-11T09:42:48.537Z,100258.60
2019-02-11T09:45:31.594Z,100248.22
2019-02-11T09:47:52.958Z,100256.63
2019-02-11T09:50:37.958Z,100256.89
2019-02-11T09:52:59.326Z,100275.80
2019-02-11T09:55:43.850Z,100263.80
2019-02-11T09:58:05.149Z,100242.59
2019-02-11T10:00:26.497Z,100250.00
2019-02-11T10:02:47.981Z,100250.20
2019-02-11T10:05:09.306Z,100244.63
2019-02-11T10:07:30.574Z,100285.41
2019-02-11T10:09:51.861Z,100259.75
2019-02-11T10:12:21.087Z,100294.05
2019-02-11T10:14:56.221Z,100277.81
2019-02-11T10:17:17.474Z,100292.89
2019-02-11T10:19:38.764Z,100326.80
2019-02-11T10:22:00.025Z,100311.53
2019-02-11T10:24:23.160Z,100288.83
2019-02-11T10:26:44.428Z,100334.94
2019-02-11T10:28:59.037Z,100342.27
2019-02-11T10:31:20.306Z,100344.95
2019-02-11T10:33:41.689Z,100354.48
2019-02-11T10:36:02.953Z,100359.84
2019-02-11T10:38:24.245Z,100325.83
2019-02-11T10:40:45.496Z,100356.77
2019-02-11T10:43:06.788Z,100355.03
2019-02-11T10:45:36.271Z,100327.23
2019-02-11T10:48:11.631Z,100374.31
2019-02-11T10:50:32.990Z,100347.05
2019-02-11T10:52:54.342Z,100343.62
2019-02-11T10:58:25.865Z,100349.73
2019-02-11T11:00:47.227Z,100384.55
2019-02-11T11:03:08.472Z,100359.19
2019-02-11T11:05:49.632Z,100386.66
2019-02-11T11:08:10.887Z,100365.55
2019-02-11T11:10:53.999Z,100399.73
2019-02-11T11:13:17.117Z,100364.84
2019-02-11T11:15:38.407Z,100388.12
2019-02-11T11:18:00.090Z,100387.31
2019-02-11T11:20:21.356Z,100414.66
2019-02-11T11:23:02.541Z,100379.05
2019-02-11T11:25:23.758Z,100376.00
2019-02-11T11:27:45.132Z,100421.55
2019-02-11T11:29:59.972Z,100421.47
2019-02-11T11:32:21.269Z,100400.21
2019-02-11T11:34:42.822Z,100406.87
2019-02-11T11:36:44.205Z,100450.52
2019-02-11T11:39:28.437Z,100413.02
2019-02-11T11:41:49.736Z,100410.22
2019-02-11T11:44:11.003Z,100453.59
2019-02-11T11:46:12.373Z,100452.16
2019-02-11T11:48:33.664Z,100461.55
2019-02-11T11:50:54.901Z,100468.47
2019-02-11T11:53:10.912Z,100424.94
2019-02-11T11:55:32.160Z,100457.73
2019-02-11T11:57:53.457Z,100435.05
2019-02-11T12:00:34.738Z,100473.54
2019-02-11T12:03:04.588Z,100480.03
2019-02-11T12:05:39.075Z,100485.58
2019-02-11T12:08:00.344Z,100449.88
2019-02-11T12:10:22.094Z,100494.26
2019-02-11T12:12:43.348Z,100462.64
2019-02-11T12:15:27.137Z,100497.67
2019-02-11T12:18:09.511Z,100466.12
2019-02-11T12:20:33.290Z,100464.37
2019-02-11T12:23:14.024Z,100498.17
2019-02-11T12:25:35.320Z,100478.39
2019-02-11T12:27:56.831Z,100516.89
2019-02-11T12:29:58.225Z,100524.30
2019-02-11T12:32:19.445Z,100491.13
2019-02-11T12:34:40.749Z,100492.00
2019-02-11T12:37:02.387Z,100530.53
2019-02-11T12:39:23.589Z,100529.00
2019-02-11T12:41:44.850Z,100500.94
2019-02-11T12:44:06.147Z,100540.04
2019-02-11T12:46:27.431Z,100508.52
2019-02-11T12:48:48.683Z,100557.95
2019-02-11T12:51:09.952Z,100547.38
2019-02-11T12:53:44.788Z,100514.81
2019-02-11T12:55:46.145Z,100559.30
2019-02-11T12:58:07.482Z,100548.95
2019-02-11T13:00:28.932Z,100538.36
2019-02-11T13:02:50.496Z,100541.52
2019-02-11T13:05:12.189Z,100537.20
2019-02-11T13:07:33.391Z,100534.59
2019-02-11T13:10:34.983Z,100554.28
2019-02-11T13:12:56.283Z,100542.26
2019-02-11T13:15:34.680Z,100590.19
2019-02-11T13:18:01.082Z,100591.44
2019-02-11T13:20:22.407Z,100610.63
2019-02-11T13:22:43.667Z,100575.42
2019-02-11T13:25:26.709Z,100642.78
2019-02-11T13:27:47.982Z,100665.05
2019-02-11T13:30:30.968Z,100629.28
2019-02-11T13:32:54.134Z,100674.36
2019-02-11T13:35:15.407Z,100639.91
2019-02-11T13:37:36.890Z,100683.17
2019-02-11T13:39:58.410Z,100656.32
2019-02-11T13:42:19.688Z,100652.02
2019-02-11T13:44:40.981Z,100660.97
2019-02-11T13:47:02.318Z,100661.07
2019-02-11T13:49:24.026Z,100700.91
2019-02-11T13:51:45.510Z,100707.42
2019-02-11T13:54:06.857Z,100672.77
2019-02-11T13:56:22.416Z,100720.39
2019-02-11T13:58:43.761Z,100680.12
2019-02-11T14:01:26.854Z,100720.42
2019-02-11T14:03:48.210Z,100696.02
2019-02-11T14:06:09.511Z,100737.98
2019-02-11T14:08:30.738Z,100695.24
2019-02-11T14:10:32.265Z,100734.82
2019-02-11T14:12:33.804Z,100743.70
2019-02-11T14:14:55.085Z,100729.39
2019-02-11T14:17:16.445Z,100743.67
2019-02-11T14:19:37.699Z,100718.34
2019-02-11T14:21:58.953Z,100755.62
2019-02-11T14:24:20.275Z,100762.49
2019-02-11T14:26:41.552Z,100735.09
2019-02-11T14:29:02.885Z,100773.96
2019-02-11T14:31:24.265Z,100778.81
2019-02-11T14:33:45.551Z,100772.03
2019-02-11T14:36:06.809Z,100776.86
2019-02-11T14:38:28.039Z,100749.13
2019-02-11T14:40:49.338Z,100785.41
2019-02-11T14:43:10.691Z,100752.77
2019-02-11T14:45:32.147Z,100794.55
2019-02-11T14:47:53.475Z,100765.78
2019-02-11T14:50:14.939Z,100783.36
2019-02-11T14:52:30.447Z,100814.88
2019-02-11T14:54:51.755Z,100792.27
2019-02-11T14:57:13.042Z,100781.87
2019-02-11T14:59:34.283Z,100827.19
2019-02-11T15:01:55.604Z,100784.30
2019-02-11T15:04:19.112Z,100837.32
2019-02-11T15:06:40.337Z,100802.57
2019-02-11T15:09:01.616Z,100843.38
2019-02-11T15:11:22.960Z,100811.48
2019-02-11T15:13:44.291Z,100859.19
2019-02-11T15:16:05.546Z,100833.83
2019-02-11T15:18:34.072Z,100864.66
2019-02-11T15:23:57.426Z,100876.53
2019-02-11T15:26:18.702Z,100864.61
2019-02-11T15:28:39.942Z,100840.57
2019-02-11T15:31:01.217Z,100890.58
2019-02-11T15:33:22.468Z,100884.67
2019-02-11T15:35:43.731Z,100892.48
2019-02-11T15:38:05.040Z,100896.91
2019-02-11T15:40:26.291Z,100875.17
2019-02-11T15:42:47.542Z,100909.76
2019-02-11T15:45:30.630Z,100917.96
2019-02-11T15:47:31.999Z,100931.51
2019-02-11T15:49:53.245Z,100925.96
2019-02-11T15:52:14.689Z,100935.16
2019-02-11T15:54:29.256Z,100907.53
2019-02-11T15:56:50.522Z,100948.73
2019-02-11T15:59:11.831Z,100951.98
2019-02-11T16:01:33.110Z,100960.10
2019-02-11T16:03:54.399Z,100973.80
2019-02-11T16:06:15.657Z,100936.92
2019-02-11T16:08:36.974Z,100987.83
2019-02-11T16:11:01.508Z,100993.74
2019-02-11T16:13:41.442Z,101008.34
2019-02-11T16:16:02.803Z,101003.92
2019-02-11T16:18:24.060Z,101004.41
2019-02-11T16:20:45.409Z,100970.39
2019-02-11T16:23:06.666Z,101020.90
2019-02-11T16:25:27.902Z,101027.03
2019-02-11T16:27:49.367Z,101001.50
2019-02-11T16:30:32.399Z,101014.83
2019-02-11T16:32:53.693Z,101055.95
2019-02-11T16:35:17.140Z,101035.34
2019-02-11T16:37:18.507Z,101074.51
2019-02-11T16:39:39.814Z,101038.31
2019-02-11T16:42:01.064Z,101069.44
2019-02-11T16:44:15.854Z,101048.98
2019-02-11T16:46:37.109Z,101056.92
2019-02-11T16:49:00.542Z,101053.58
2019-02-11T16:51:41.454Z,101073.92
2019-02-11T16:54:02.810Z,101117.44
2019-02-11T16:56:24.053Z,101087.48
2019-02-11T16:58:45.506Z,101130.86
2019-02-11T17:01:06.756Z,101105.53
2019-02-11T17:03:27.997Z,101111.69
2019-02-11T17:05:49.322Z,101159.86
2019-02-11T17:08:10.574Z,101164.87
2019-02-11T17:10:31.866Z,101128.67
2019-02-11T17:12:53.423Z,101144.77
2019-02-11T17:15:35.532Z,101151.06
2019-02-11T17:17:56.847Z,101159.08
2019-02-11T17:20:18.110Z,101206.66
2019-02-11T17:22:39.357Z,101210.80
2019-02-11T17:25:00.664Z,101191.38
2019-02-11T17:27:21.901Z,101224.09
2019-02-11T17:29:43.151Z,101200.33
2019-02-11T17:32:04.470Z,101241.90
2019-02-11T17:34:25.706Z,101205.63
2019-02-11T17:36:27.086Z,101243.98
2019-02-11T17:38:42.376Z,101207.27
2019-02-11T17:41:03.626Z,101210.08
2019-02-11T17:43:24.858Z,101260.59
2019-02-11T17:45:46.202Z,101261.25
2019-02-11T17:48:07.562Z,101262.72
2019-02-11T17:50:28.824Z,101267.34
2019-02-11T17:53:11.227Z,101268.98
2019-02-11T17:55:32.490Z,101279.19
2019-02-11T17:57:53.752Z,101286.81
2019-02-11T18:03:26.354Z,101258.14
2019-02-11T18:05:47.614Z,101276.14
2019-02-11T18:08:08.864Z,101322.09
2019-02-11T18:10:30.201Z,101325.30
2019-02-11T18:12:51.464Z,101333.23
2019-02-11T18:15:12.820Z,101334.41
2019-02-11T18:17:34.141Z,101338.67
2019-02-11T18:19:55.378Z,101341.20
2019-02-11T18:22:16.638Z,101317.12
2019-02-11T18:24:37.954Z,101354.07
2019-02-11T18:26:59.340Z,101364.55
2019-02-11T18:29:20.599Z,101365.73
2019-02-11T18:31:41.902Z,101363.30
2019-02-11T18:34:03.261Z,101374.96
2019-02-11T18:36:24.496Z,101379.05
2019-02-11T18:38:46.112Z,101347.12
2019-02-11T18:41:00.885Z,101386.95
2019-02-11T18:43:22.149Z,101361.46
2019-02-11T18:45:23.866Z,101406.42
2019-02-11T18:47:45.129Z,101371.95
2019-02-11T18:50:28.225Z,101432.16
2019-02-11T18:52:49.472Z,101438.10
2019-02-11T18:55:12.537Z,101436.61
2019-02-11T18:57:32.821Z,101449.74
2019-02-11T18:59:52.558Z,101456.30
2019-02-11T19:01:53.949Z,101458.80
2019-02-11T19:03:55.379Z,101465.35
2019-02-11T19:05:56.756Z,101473.92
2019-02-11T19:07:58.166Z,101472.61
2019-02-11T19:09:59.609Z,101473.27
2019-02-11T19:12:01.021Z,101472.45
2019-02-11T19:14:02.590Z,101480.91
2019-02-11T19:16:04.001Z,101484.59
2019-02-11T19:18:05.396Z,101489.53
2019-02-11T19:20:12.714Z,101490.03
2019-02-11T19:22:14.158Z,101483.16
2019-02-11T19:24:15.729Z,101491.55
2019-02-11T19:26:17.159Z,101497.08
2019-02-11T19:28:18.562Z,101491.33
2019-02-11T19:30:23.651Z,101488.62
2019-02-11T19:32:25.052Z,101495.13
2019-02-11T19:34:26.436Z,101499.98
2019-02-11T19:36:28.539Z,101509.59
2019-02-11T19:38:29.942Z,101512.46
2019-02-11T19:40:31.341Z,101520.58
2019-02-11T19:42:32.918Z,101518.84
2019-02-11T19:44:34.309Z,101517.43
2019-02-11T19:46:36.540Z,101517.73
2019-02-11T19:48:38.002Z,101522.13
2019-02-11T19:50:39.396Z,101527.98
2019-02-11T19:52:40.894Z,101530.59
2019-02-11T19:54:42.345Z,101533.98
2019-02-11T19:56:43.850Z,101538.22
2019-02-11T19:58:46.237Z,101544.56
2019-02-11T20:00:47.631Z,101546.88
2019-02-11T20:02:49.572Z,101547.05
2019-02-11T20:04:50.929Z,101546.98
2019-02-11T20:06:52.391Z,101546.41
2019-02-11T20:08:54.712Z,101543.31
2019-02-11T20:10:56.092Z,101566.59
2019-02-11T20:12:57.460Z,101571.12
2019-02-11T20:14:58.893Z,101579.31
2019-02-11T20:17:00.254Z,101577.98
2019-02-11T20:19:01.631Z,101587.24
2019-02-11T20:21:03.151Z,101589.08
2019-02-11T20:23:04.542Z,101587.50
2019-02-11T20:25:07.719Z,101587.47
2019-02-11T20:27:09.169Z,101594.31
2019-02-11T20:29:10.513Z,101592.87
2019-02-11T20:31:11.942Z,101594.52
2019-02-11T20:33:13.324Z,101594.96
2019-02-11T20:35:14.783Z,101597.66
2019-02-11T20:37:16.214Z,101601.42
2019-02-11T20:39:17.584Z,101607.80
2019-02-11T20:41:18.950Z,101596.22
2019-02-11T20:43:20.549Z,101601.46
2019-02-11T20:45:26.856Z,101603.91
2019-02-11T20:47:28.224Z,101614.98
2019-02-11T20:49:29.698Z,101618.06
2019-02-11T20:51:31.062Z,101617.10
2019-02-11T20:53:32.438Z,101625.09
2019-02-11T20:55:33.871Z,101626.11
2019-02-11T20:57:35.315Z,101628.75
2019-02-11T20:59:36.672Z,101635.55
2019-02-11T21:01:38.059Z,101638.06
2019-02-11T21:03:39.510Z,101636.26
2019-02-11T21:05:40.881Z,101640.94
2019-02-11T21:07:42.237Z,101640.84
2019-02-11T21:09:43.621Z,101643.33
2019-02-11T21:11:44.967Z,101640.06
2019-02-11T21:13:46.412Z,101642.34
2019-02-11T21:15:47.772Z,101648.88
2019-02-11T21:17:49.551Z,101650.38
2019-02-11T21:19:50.932Z,101656.55
2019-02-11T21:21:52.349Z,101657.22
2019-02-11T21:23:53.915Z,101667.15
2019-02-11T21:25:55.365Z,101668.11
2019-02-11T21:27:56.715Z,101672.50
2019-02-11T21:29:58.202Z,101649.64
2019-02-11T21:31:59.552Z,101674.97
2019-02-11T21:34:01.003Z,101674.31
2019-02-11T21:36:02.850Z,101679.03
2019-02-11T21:38:04.214Z,101683.74
2019-02-11T21:40:05.894Z,101685.69
2019-02-11T21:42:07.353Z,101682.62
2019-02-11T21:44:08.772Z,101689.30
2019-02-11T21:46:10.145Z,101695.51
2019-02-11T21:48:11.577Z,101689.80
2019-02-11T21:50:26.097Z,101704.60
2019-02-11T21:52:21.348Z,101702.17
2019-02-11T21:54:22.688Z,101702.96
2019-02-11T21:56:24.056Z,101701.83
2019-02-11T21:58:25.481Z,101698.11
2019-02-11T22:00:26.860Z,101706.55
2019-02-11T22:02:28.230Z,101703.45
2019-02-11T22:04:29.624Z,101705.60
2019-02-11T22:06:31.181Z,101713.55
2019-02-11T22:08:32.557Z,101709.97
2019-02-11T22:10:33.968Z,101702.84
2019-02-11T22:12:35.307Z,101702.36
2019-02-11T22:14:36.727Z,101698.45
2019-02-11T22:16:38.083Z,101714.38
2019-02-11T22:18:39.461Z,101707.41
2019-02-11T22:20:40.906Z,101714.55
2019-02-11T22:22:42.315Z,101704.61
2019-02-11T22:24:43.640Z,101701.20
2019-02-11T22:26:45.055Z,101700.73
2019-02-11T22:28:46.395Z,101713.91
2019-02-11T22:30:47.781Z,101713.90
2019-02-11T22:32:49.196Z,101717.95
2019-02-11T22:34:50.564Z,101722.67
2019-02-11T22:36:52.011Z,101723.17
2019-02-11T22:38:53.428Z,101718.79
2019-02-11T22:40:54.843Z,101730.97
2019-02-11T22:42:56.228Z,101729.52
2019-02-11T22:44:57.613Z,101742.50
2019-02-11T22:46:59.059Z,101736.47
2019-02-11T22:49:00.446Z,101741.03
2019-02-11T22:51:01.788Z,101750.12
2019-02-11T22:53:03.302Z,101748.95
2019-02-11T22:55:08.408Z,101752.39
2019-02-11T22:57:09.731Z,101750.92
2019-02-11T22:59:11.475Z,101754.49
2019-02-11T23:01:13.534Z,101759.71
2019-02-11T23:03:15.390Z,101761.50
2019-02-11T23:05:16.845Z,101767.33
2019-02-11T23:07:18.220Z,101775.31
2019-02-11T23:09:19.615Z,101782.45
2019-02-11T23:11:21.139Z,101783.59
2019-02-11T23:13:22.530Z,101788.13
2019-02-11T23:15:23.931Z,101794.12
2019-02-11T23:17:25.308Z,101783.25
2019-02-11T23:19:26.800Z,101791.86
2019-02-11T23:21:28.157Z,101800.95
2019-02-11T23:23:29.571Z,101794.96
2019-02-11T23:25:30.901Z,101808.76
2019-02-11T23:27:32.302Z,101816.58
2019-02-11T23:29:33.714Z,101819.66
2019-02-11T23:31:35.098Z,101816.73
2019-02-11T23:33:36.471Z,101822.42
2019-02-11T23:35:37.836Z,101820.63
2019-02-11T23:37:39.669Z,101827.30
2019-02-11T23:39:41.039Z,101826.16
2019-02-11T23:41:42.410Z,101825.49
2019-02-11T23:43:43.816Z,101826.97
2019-02-11T23:45:45.416Z,101825.19
2019-02-11T23:47:46.761Z,101826.30
2019-02-11T23:49:48.156Z,101832.50
2019-02-11T23:51:49.562Z,101838.66
2019-02-11T23:53:51.007Z,101833.63
2019-02-11T23:55:52.396Z,101832.97
2019-02-11T23:57:53.760Z,101846.63
2019-02-11T23:59:55.361Z,101843.23
